createdAt,value
2022-12-15T00:00:36.089Z,29.40
2022-12-15T00:01:35.977Z,29.00
2022-12-15T00:02:36.120Z,28.50
2022-12-15T00:03:36.765Z,29.20
2022-12-15T00:04:35.842Z,28.50
2022-12-15T00:05:35.784Z,28.70
2022-12-15T00:06:35.782Z,28.70
2022-12-15T00:07:35.678Z,29.00
2022-12-15T00:08:35.649Z,27.90
2022-12-15T00:09:35.596Z,28.70
2022-12-15T00:10:35.564Z,29.20
2022-12-15T00:11:35.483Z,27.20
2022-12-15T00:12:35.437Z,27.80
2022-12-15T00:13:35.452Z,27.60
2022-12-15T00:14:35.346Z,28.40
2022-12-15T00:15:35.344Z,28.20
2022-12-15T00:16:35.317Z,28.00
2022-12-15T00:17:35.184Z,28.40
2022-12-15T00:18:35.138Z,28.60
2022-12-15T00:19:35.089Z,27.30
2022-12-15T00:20:35.039Z,27.40
2022-12-15T00:21:34.999Z,27.70
2022-12-15T00:22:34.942Z,28.30
2022-12-15T00:23:34.889Z,27.60
2022-12-15T00:24:34.841Z,28.30
2022-12-15T00:25:34.793Z,27.40
2022-12-15T00:26:34.751Z,27.20
2022-12-15T00:27:34.691Z,27.00
2022-12-15T00:28:34.644Z,28.20
2022-12-15T00:29:34.593Z,27.60
2022-12-15T00:30:34.551Z,28.10
2022-12-15T00:31:34.529Z,29.00
2022-12-15T00:32:34.449Z,28.00
2022-12-15T00:33:34.753Z,28.20
2022-12-15T00:34:34.360Z,27.60
2022-12-15T00:35:34.296Z,28.10
2022-12-15T00:36:34.251Z,27.50
2022-12-15T00:37:34.207Z,26.60
2022-12-15T00:38:34.151Z,26.50
2022-12-15T00:39:34.103Z,27.40
2022-12-15T00:40:34.050Z,27.60
2022-12-15T00:41:33.999Z,28.10
2022-12-15T00:42:33.953Z,28.40
2022-12-15T00:43:34.327Z,28.00
2022-12-15T00:44:33.866Z,27.90
2022-12-15T00:45:33.805Z,27.50
2022-12-15T00:46:33.796Z,29.80
2022-12-15T00:47:33.702Z,28.30
2022-12-15T00:48:33.665Z,27.80
2022-12-15T00:49:33.604Z,28.60
2022-12-15T00:50:33.555Z,28.80
2022-12-15T00:51:33.520Z,27.80
2022-12-15T00:52:33.459Z,27.50
2022-12-15T00:53:33.642Z,27.50
2022-12-15T00:54:33.375Z,27.70
2022-12-15T00:55:33.312Z,27.40
2022-12-15T00:56:33.262Z,27.50
2022-12-15T00:57:33.209Z,27.10
2022-12-15T00:58:33.172Z,27.00
2022-12-15T00:59:33.119Z,27.80
2022-12-15T01:00:33.061Z,27.50
2022-12-15T01:01:33.124Z,27.50
2022-12-15T01:02:33.181Z,27.30
2022-12-15T01:03:33.381Z,26.60
2022-12-15T01:04:32.875Z,27.00
2022-12-15T01:05:32.817Z,27.20
2022-12-15T01:06:32.764Z,28.80
2022-12-15T01:07:32.712Z,29.60
2022-12-15T01:08:32.670Z,29.40
2022-12-15T01:09:32.637Z,28.30
2022-12-15T01:10:32.567Z,29.00
2022-12-15T01:11:32.521Z,28.80
2022-12-15T01:12:32.466Z,28.60
2022-12-15T01:13:32.931Z,28.30
2022-12-15T01:14:32.367Z,28.40
2022-12-15T01:15:32.334Z,28.40
2022-12-15T01:16:32.395Z,28.70
2022-12-15T01:17:32.224Z,27.90
2022-12-15T01:18:32.170Z,27.20
2022-12-15T01:19:32.127Z,27.30
2022-12-15T01:20:32.082Z,27.50
2022-12-15T01:21:32.028Z,27.70
2022-12-15T01:22:31.974Z,27.40
2022-12-15T01:23:32.287Z,26.80
2022-12-15T01:24:31.909Z,27.90
2022-12-15T01:25:31.843Z,26.90
2022-12-15T01:26:31.785Z,26.90
2022-12-15T01:27:31.731Z,26.60
2022-12-15T01:28:31.675Z,26.80
2022-12-15T01:29:31.629Z,27.10
2022-12-15T01:30:31.577Z,27.30
2022-12-15T01:31:31.562Z,27.40
2022-12-15T01:32:31.477Z,27.50
2022-12-15T01:33:31.883Z,27.60
2022-12-15T01:34:31.387Z,28.00
2022-12-15T01:35:31.338Z,28.60
2022-12-15T01:36:31.282Z,31.90
2022-12-15T01:37:31.233Z,31.70
2022-12-15T01:38:31.185Z,30.90
2022-12-15T01:39:31.151Z,33.20
2022-12-15T01:40:31.096Z,31.90
2022-12-15T01:41:31.036Z,32.90
2022-12-15T01:42:30.984Z,35.90
2022-12-15T01:43:31.313Z,30.70
2022-12-15T01:44:30.887Z,31.90
2022-12-15T01:45:30.840Z,28.70
2022-12-15T01:46:30.825Z,29.10
2022-12-15T01:47:30.741Z,29.20
2022-12-15T01:48:30.688Z,30.50
2022-12-15T01:49:30.639Z,31.20
2022-12-15T01:50:30.591Z,30.80
2022-12-15T01:51:30.545Z,29.80
2022-12-15T01:52:30.502Z,31.80
2022-12-15T01:53:31.102Z,35.70
2022-12-15T01:54:30.400Z,37.70
2022-12-15T01:55:30.348Z,35.50
2022-12-15T01:56:36.873Z,38.50
2022-12-15T01:57:30.254Z,39.80
2022-12-15T01:58:30.204Z,40.40
2022-12-15T01:59:30.154Z,45.40
2022-12-15T02:00:30.184Z,46.30
2022-12-15T02:01:30.124Z,45.80
2022-12-15T02:02:30.241Z,53.50
2022-12-15T02:03:30.538Z,48.40
2022-12-15T02:04:29.908Z,53.00
2022-12-15T02:05:29.855Z,59.70
2022-12-15T02:06:29.798Z,61.40
2022-12-15T02:07:29.756Z,55.90
2022-12-15T02:08:29.702Z,50.50
2022-12-15T02:09:29.671Z,52.00
2022-12-15T02:10:29.603Z,55.10
2022-12-15T02:11:29.573Z,62.50
2022-12-15T02:12:29.507Z,57.60
2022-12-15T02:13:30.033Z,61.30
2022-12-15T02:14:29.408Z,63.30
2022-12-15T02:15:29.371Z,55.70
2022-12-15T02:16:29.328Z,55.80
2022-12-15T02:17:29.275Z,64.30
2022-12-15T02:18:29.216Z,52.50
2022-12-15T02:19:29.173Z,58.90
2022-12-15T02:20:29.122Z,70.20
2022-12-15T02:21:29.073Z,71.90
2022-12-15T02:22:29.027Z,56.00
2022-12-15T02:23:29.561Z,65.30
2022-12-15T02:24:28.920Z,63.30
2022-12-15T02:25:28.895Z,63.20
2022-12-15T02:26:28.830Z,63.00
2022-12-15T02:27:28.834Z,64.40
2022-12-15T02:28:28.734Z,58.00
2022-12-15T02:29:28.682Z,59.30
2022-12-15T02:30:28.630Z,64.70
2022-12-15T02:31:28.628Z,59.10
2022-12-15T02:32:28.526Z,59.00
2022-12-15T02:33:28.933Z,55.60
2022-12-15T02:34:28.439Z,57.30
2022-12-15T02:35:28.381Z,60.60
2022-12-15T02:36:28.333Z,72.90
2022-12-15T02:37:28.285Z,76.10
2022-12-15T02:38:28.236Z,59.80
2022-12-15T02:39:28.191Z,59.40
2022-12-15T02:40:28.150Z,54.60
2022-12-15T02:41:28.093Z,64.20
2022-12-15T02:42:28.037Z,57.60
2022-12-15T02:43:28.446Z,58.00
2022-12-15T02:44:27.940Z,52.90
2022-12-15T02:45:27.923Z,53.90
2022-12-15T02:46:27.857Z,59.80
2022-12-15T02:47:27.809Z,59.90
2022-12-15T02:48:27.746Z,52.10
2022-12-15T02:49:27.701Z,64.10
2022-12-15T02:50:27.648Z,61.10
2022-12-15T02:51:27.605Z,56.80
2022-12-15T02:52:27.551Z,56.40
2022-12-15T02:53:27.759Z,54.10
2022-12-15T02:54:27.454Z,61.50
2022-12-15T02:55:27.412Z,54.30
2022-12-15T02:56:27.361Z,63.30
2022-12-15T02:57:27.329Z,61.30
2022-12-15T02:58:27.271Z,58.90
2022-12-15T02:59:27.216Z,59.60
2022-12-15T03:00:27.167Z,59.70
2022-12-15T03:01:27.186Z,61.10
2022-12-15T03:02:27.275Z,61.60
2022-12-15T03:03:27.095Z,59.20
2022-12-15T03:04:26.971Z,55.50
2022-12-15T03:05:26.922Z,60.40
2022-12-15T03:06:26.869Z,60.30
2022-12-15T03:07:26.821Z,57.70
2022-12-15T03:08:26.783Z,62.50
2022-12-15T03:09:26.730Z,60.30
2022-12-15T03:10:26.674Z,59.40
2022-12-15T03:11:26.628Z,60.50
2022-12-15T03:12:26.576Z,65.90
2022-12-15T03:13:26.529Z,61.10
2022-12-15T03:14:26.489Z,60.80
2022-12-15T03:15:29.144Z,61.70
2022-12-15T03:16:26.485Z,58.70
2022-12-15T03:17:26.336Z,57.90
2022-12-15T03:18:26.295Z,61.40
2022-12-15T03:19:26.237Z,60.10
2022-12-15T03:20:26.227Z,59.80
2022-12-15T03:21:26.142Z,60.00
2022-12-15T03:22:26.088Z,60.80
2022-12-15T03:23:26.041Z,62.30
2022-12-15T03:24:25.992Z,65.30
2022-12-15T03:25:25.948Z,59.10
2022-12-15T03:26:25.902Z,59.90
2022-12-15T03:27:25.853Z,65.00
2022-12-15T03:28:25.796Z,64.90
2022-12-15T03:29:25.750Z,67.70
2022-12-15T03:30:25.701Z,63.50
2022-12-15T03:31:25.777Z,62.50
2022-12-15T03:32:25.613Z,64.50
2022-12-15T03:33:25.555Z,68.30
2022-12-15T03:34:25.503Z,66.70
2022-12-15T03:35:25.466Z,65.80
2022-12-15T03:36:25.408Z,65.90
2022-12-15T03:37:25.363Z,66.20
2022-12-15T03:38:25.324Z,61.10
2022-12-15T03:39:25.274Z,62.00
2022-12-15T03:40:25.216Z,66.60
2022-12-15T03:41:25.166Z,62.10
2022-12-15T03:42:25.117Z,63.20
2022-12-15T03:43:25.068Z,66.90
2022-12-15T03:44:25.017Z,62.80
2022-12-15T03:45:24.981Z,65.80
2022-12-15T03:46:24.948Z,66.20
2022-12-15T03:47:24.876Z,65.40
2022-12-15T03:48:24.825Z,63.50
2022-12-15T03:49:24.790Z,62.70
2022-12-15T03:50:24.726Z,65.60
2022-12-15T03:51:24.685Z,63.40
2022-12-15T03:52:24.628Z,65.90
2022-12-15T03:53:24.581Z,62.90
2022-12-15T03:54:24.539Z,67.10
2022-12-15T03:55:24.496Z,62.40
2022-12-15T03:56:24.434Z,64.20
2022-12-15T03:57:24.388Z,67.00
2022-12-15T03:58:24.343Z,65.70
2022-12-15T03:59:24.289Z,66.30
2022-12-15T04:00:24.238Z,64.30
2022-12-15T04:01:24.305Z,68.80
2022-12-15T04:02:24.297Z,70.60
2022-12-15T04:03:24.168Z,61.30
2022-12-15T04:04:24.043Z,64.50
2022-12-15T04:05:23.995Z,59.80
2022-12-15T04:06:23.945Z,64.80
2022-12-15T04:07:23.913Z,62.10
2022-12-15T04:08:23.850Z,64.90
2022-12-15T04:09:23.805Z,67.00
2022-12-15T04:10:27.287Z,65.40
2022-12-15T04:11:23.709Z,59.80
2022-12-15T04:12:23.655Z,60.70
2022-12-15T04:13:23.620Z,63.10
2022-12-15T04:14:23.557Z,59.30
2022-12-15T04:15:23.508Z,62.30
2022-12-15T04:16:23.524Z,60.10
2022-12-15T04:17:23.413Z,58.50
2022-12-15T04:18:23.366Z,59.60
2022-12-15T04:19:23.328Z,61.00
2022-12-15T04:20:23.260Z,61.30
2022-12-15T04:21:23.216Z,56.70
2022-12-15T04:22:23.166Z,56.40
2022-12-15T04:23:23.120Z,59.80
2022-12-15T04:24:23.080Z,60.50
2022-12-15T04:25:23.031Z,57.20
2022-12-15T04:26:22.968Z,61.20
2022-12-15T04:27:22.921Z,59.90
2022-12-15T04:28:22.871Z,62.60
2022-12-15T04:29:22.827Z,59.70
2022-12-15T04:30:22.772Z,58.60
2022-12-15T04:31:22.791Z,58.40
2022-12-15T04:32:22.676Z,56.30
2022-12-15T04:33:26.383Z,58.10
2022-12-15T04:34:22.580Z,61.20
2022-12-15T04:35:22.535Z,58.70
2022-12-15T04:36:22.483Z,59.20
2022-12-15T04:37:22.449Z,60.00
2022-12-15T04:38:22.386Z,58.90
2022-12-15T04:39:22.337Z,59.10
2022-12-15T04:40:22.285Z,63.40
2022-12-15T04:41:22.242Z,63.50
2022-12-15T04:42:22.186Z,60.20
2022-12-15T04:43:22.160Z,61.60
2022-12-15T04:44:22.088Z,64.00
2022-12-15T04:45:22.043Z,60.80
2022-12-15T04:46:22.033Z,65.40
2022-12-15T04:47:21.947Z,66.70
2022-12-15T04:48:21.893Z,63.00
2022-12-15T04:49:21.859Z,63.70
2022-12-15T04:50:21.796Z,64.60
2022-12-15T04:51:23.875Z,66.20
2022-12-15T04:52:21.696Z,66.50
2022-12-15T04:53:21.651Z,65.20
2022-12-15T04:54:21.614Z,65.60
2022-12-15T04:55:21.556Z,68.10
2022-12-15T04:56:21.504Z,69.70
2022-12-15T04:57:21.460Z,68.20
2022-12-15T04:58:21.413Z,71.20
2022-12-15T04:59:21.457Z,72.00
2022-12-15T05:00:21.308Z,65.10
2022-12-15T05:01:21.367Z,71.50
2022-12-15T05:02:21.388Z,71.50
2022-12-15T05:03:21.170Z,74.30
2022-12-15T05:04:21.192Z,75.40
2022-12-15T05:05:21.068Z,80.00
2022-12-15T05:06:21.015Z,77.80
2022-12-15T05:07:20.975Z,73.60
2022-12-15T05:08:20.930Z,74.10
2022-12-15T05:09:20.871Z,70.80
2022-12-15T05:10:20.825Z,71.10
2022-12-15T05:11:20.774Z,76.50
2022-12-15T05:12:20.731Z,75.20
2022-12-15T05:13:20.680Z,77.80
2022-12-15T05:14:20.638Z,74.50
2022-12-15T05:15:20.582Z,75.70
2022-12-15T05:16:20.564Z,75.10
2022-12-15T05:17:20.546Z,73.10
2022-12-15T05:18:20.430Z,81.00
2022-12-15T05:19:20.385Z,80.50
2022-12-15T05:20:20.346Z,76.00
2022-12-15T05:21:20.290Z,75.70
2022-12-15T05:22:20.236Z,76.40
2022-12-15T05:23:20.191Z,74.60
2022-12-15T05:24:20.141Z,78.20
2022-12-15T05:25:20.147Z,86.30
2022-12-15T05:26:20.060Z,82.90
2022-12-15T05:27:19.992Z,83.90
2022-12-15T05:28:19.947Z,80.10
2022-12-15T05:29:19.897Z,84.70
2022-12-15T05:30:19.851Z,83.10
2022-12-15T05:31:19.917Z,87.30
2022-12-15T05:32:19.765Z,88.70
2022-12-15T05:33:19.708Z,82.20
2022-12-15T05:34:19.662Z,81.80
2022-12-15T05:35:19.604Z,82.60
2022-12-15T05:36:19.560Z,84.40
2022-12-15T05:37:19.508Z,93.10
2022-12-15T05:38:19.473Z,93.00
2022-12-15T05:39:19.421Z,89.90
2022-12-15T05:40:19.365Z,87.50
2022-12-15T05:41:19.315Z,83.30
2022-12-15T05:42:19.277Z,86.60
2022-12-15T05:43:24.638Z,86.00
2022-12-15T05:44:19.182Z,92.00
2022-12-15T05:45:19.123Z,90.40
2022-12-15T05:46:19.147Z,92.40
2022-12-15T05:47:19.024Z,91.30
2022-12-15T05:48:18.977Z,87.00
2022-12-15T05:49:18.940Z,86.70
2022-12-15T05:50:18.880Z,89.90
2022-12-15T05:51:18.829Z,90.60
2022-12-15T05:52:18.784Z,90.20
2022-12-15T05:53:18.732Z,92.30
2022-12-15T05:54:18.684Z,88.50
2022-12-15T05:55:18.649Z,92.80
2022-12-15T05:56:18.591Z,83.00
2022-12-15T05:57:18.543Z,99.10
2022-12-15T05:58:18.497Z,93.00
2022-12-15T05:59:18.445Z,95.30
2022-12-15T06:00:18.397Z,92.50
2022-12-15T06:01:18.456Z,94.90
2022-12-15T06:02:18.357Z,94.10
2022-12-15T06:03:18.272Z,91.20
2022-12-15T06:04:18.245Z,95.50
2022-12-15T06:05:18.150Z,96.10
2022-12-15T06:06:18.107Z,93.20
2022-12-15T06:07:18.058Z,95.20
2022-12-15T06:08:18.011Z,93.50
2022-12-15T06:09:17.970Z,92.80
2022-12-15T06:10:17.929Z,97.20
2022-12-15T06:11:17.861Z,93.40
2022-12-15T06:12:17.817Z,95.50
2022-12-15T06:13:17.764Z,91.30
2022-12-15T06:14:17.718Z,92.30
2022-12-15T06:15:17.666Z,89.70
2022-12-15T06:16:17.792Z,92.50
2022-12-15T06:17:17.570Z,96.60
2022-12-15T06:18:17.526Z,94.40
2022-12-15T06:19:17.475Z,94.10
2022-12-15T06:20:17.428Z,93.90
2022-12-15T06:21:17.377Z,92.70
2022-12-15T06:22:17.350Z,93.50
2022-12-15T06:23:17.278Z,100.00
2022-12-15T06:24:17.252Z,96.90
2022-12-15T06:25:17.185Z,98.10
2022-12-15T06:26:17.137Z,95.30
2022-12-15T06:27:17.098Z,94.10
2022-12-15T06:28:17.042Z,91.20
2022-12-15T06:29:17.010Z,91.80
2022-12-15T06:30:16.949Z,97.60
2022-12-15T06:31:16.932Z,94.00
2022-12-15T06:32:16.846Z,91.50
2022-12-15T06:33:16.808Z,91.20
2022-12-15T06:34:16.755Z,92.60
2022-12-15T06:35:16.696Z,90.50
2022-12-15T06:36:16.654Z,91.10
2022-12-15T06:37:16.602Z,86.00
2022-12-15T06:38:16.555Z,92.10
2022-12-15T06:39:16.518Z,85.80
2022-12-15T06:40:16.456Z,93.20
2022-12-15T06:41:16.410Z,87.90
2022-12-15T06:42:16.363Z,85.90
2022-12-15T06:43:16.311Z,86.40
2022-12-15T06:44:16.295Z,81.90
2022-12-15T06:45:16.217Z,82.80
2022-12-15T06:46:16.250Z,83.40
2022-12-15T06:47:16.117Z,80.70
2022-12-15T06:48:16.070Z,78.20
2022-12-15T06:49:16.022Z,80.70
2022-12-15T06:50:15.989Z,77.90
2022-12-15T06:51:17.412Z,76.10
2022-12-15T06:52:15.877Z,73.30
2022-12-15T06:53:15.825Z,71.30
2022-12-15T06:54:15.786Z,70.60
2022-12-15T06:55:15.728Z,70.70
2022-12-15T06:56:15.698Z,71.50
2022-12-15T06:57:15.634Z,71.90
2022-12-15T06:58:15.587Z,70.80
2022-12-15T06:59:15.533Z,68.00
2022-12-15T07:00:15.498Z,67.00
2022-12-15T07:01:15.546Z,70.00
2022-12-15T07:02:15.633Z,69.00
2022-12-15T07:03:15.585Z,70.00
2022-12-15T07:04:15.439Z,67.10
2022-12-15T07:05:15.245Z,70.40
2022-12-15T07:06:15.196Z,70.00
2022-12-15T07:07:15.147Z,72.90
2022-12-15T07:08:15.107Z,71.60
2022-12-15T07:09:15.046Z,72.30
2022-12-15T07:10:15.002Z,73.50
2022-12-15T07:11:14.951Z,74.20
2022-12-15T07:12:14.915Z,68.70
2022-12-15T07:13:14.853Z,73.50
2022-12-15T07:14:14.808Z,72.20
2022-12-15T07:15:14.755Z,69.10
2022-12-15T07:16:14.729Z,70.30
2022-12-15T07:17:14.661Z,74.00
2022-12-15T07:18:14.625Z,73.00
2022-12-15T07:19:14.569Z,72.90
2022-12-15T07:20:14.514Z,67.90
2022-12-15T07:21:14.466Z,76.30
2022-12-15T07:22:14.422Z,72.00
2022-12-15T07:23:14.365Z,73.00
2022-12-15T07:24:14.330Z,70.60
2022-12-15T07:25:14.271Z,70.30
2022-12-15T07:26:14.221Z,75.90
2022-12-15T07:27:14.181Z,72.90
2022-12-15T07:28:14.123Z,79.10
2022-12-15T07:29:19.554Z,71.60
2022-12-15T07:30:14.028Z,77.80
2022-12-15T07:31:14.012Z,74.50
2022-12-15T07:32:13.932Z,74.80
2022-12-15T07:33:13.881Z,77.90
2022-12-15T07:34:13.839Z,68.90
2022-12-15T07:35:13.803Z,68.90
2022-12-15T07:36:13.738Z,74.30
2022-12-15T07:37:13.690Z,73.40
2022-12-15T07:38:13.639Z,74.90
2022-12-15T07:39:13.586Z,75.90
2022-12-15T07:40:13.548Z,73.70
2022-12-15T07:41:13.502Z,72.20
2022-12-15T07:42:13.443Z,73.90
2022-12-15T07:43:13.399Z,75.70
2022-12-15T07:44:13.348Z,77.40
2022-12-15T07:45:13.299Z,77.30
2022-12-15T07:46:13.308Z,77.10
2022-12-15T07:47:13.211Z,77.50
2022-12-15T07:48:13.157Z,76.80
2022-12-15T07:49:13.105Z,73.80
2022-12-15T07:50:13.067Z,76.70
2022-12-15T07:51:19.406Z,73.80
2022-12-15T07:52:12.976Z,74.40
2022-12-15T07:53:12.916Z,74.90
2022-12-15T07:54:12.861Z,71.60
2022-12-15T07:55:12.815Z,76.40
2022-12-15T07:56:12.768Z,74.70
2022-12-15T07:57:12.714Z,72.20
2022-12-15T07:58:12.683Z,72.60
2022-12-15T07:59:12.620Z,71.20
2022-12-15T08:00:12.575Z,69.80
2022-12-15T08:01:12.709Z,70.60
2022-12-15T08:02:12.723Z,67.60
2022-12-15T08:03:12.529Z,68.60
2022-12-15T08:04:12.389Z,65.40
2022-12-15T08:05:12.329Z,70.30
2022-12-15T08:06:12.335Z,64.10
2022-12-15T08:07:12.229Z,68.00
2022-12-15T08:08:15.325Z,64.20
2022-12-15T08:09:12.134Z,66.20
2022-12-15T08:10:12.100Z,62.70
2022-12-15T08:11:12.036Z,62.00
2022-12-15T08:12:11.998Z,64.40
2022-12-15T08:13:26.023Z,61.20
2022-12-15T08:14:16.978Z,59.70
2022-12-15T08:15:11.851Z,63.80
2022-12-15T08:16:11.870Z,65.10
2022-12-15T08:17:11.747Z,64.50
2022-12-15T08:18:11.702Z,66.00
2022-12-15T08:19:11.649Z,61.70
2022-12-15T08:20:11.615Z,61.70
2022-12-15T08:21:11.556Z,65.10
2022-12-15T08:22:11.524Z,63.00
2022-12-15T08:23:11.461Z,63.90
2022-12-15T08:24:11.423Z,60.60
2022-12-15T08:25:11.360Z,62.10
2022-12-15T08:26:11.313Z,62.90
2022-12-15T08:27:11.261Z,62.80
2022-12-15T08:28:11.231Z,58.00
2022-12-15T08:29:48.831Z,59.00
2022-12-15T08:30:11.122Z,60.90
2022-12-15T08:31:11.068Z,64.90
2022-12-15T08:32:11.101Z,60.30
2022-12-15T08:33:10.973Z,60.70
2022-12-15T08:34:10.946Z,60.10
2022-12-15T08:35:31.769Z,62.00
2022-12-15T08:36:10.834Z,61.60
2022-12-15T08:37:10.781Z,62.30
2022-12-15T08:38:10.733Z,63.00
2022-12-15T08:39:10.704Z,63.70
2022-12-15T08:40:10.638Z,60.10
2022-12-15T08:41:10.593Z,60.20
2022-12-15T08:42:10.542Z,62.60
2022-12-15T08:43:10.491Z,61.20
2022-12-15T08:44:10.448Z,60.20
2022-12-15T08:45:10.408Z,63.20
2022-12-15T08:46:10.391Z,61.80
2022-12-15T08:47:10.310Z,63.50
2022-12-15T08:48:10.259Z,65.20
2022-12-15T08:49:10.207Z,61.30
2022-12-15T08:50:10.158Z,62.80
2022-12-15T08:51:10.110Z,63.70
2022-12-15T08:52:10.061Z,67.90
2022-12-15T08:53:41.351Z,66.30
2022-12-15T08:54:09.964Z,67.00
2022-12-15T08:55:09.913Z,67.50
2022-12-15T08:56:09.870Z,65.50
2022-12-15T08:57:09.822Z,66.60
2022-12-15T08:58:09.772Z,68.00
2022-12-15T08:59:09.799Z,65.50
2022-12-15T09:00:09.677Z,65.70
2022-12-15T09:01:09.758Z,66.30
2022-12-15T09:02:09.665Z,67.30
2022-12-15T09:03:09.527Z,67.40
2022-12-15T09:04:09.525Z,69.90
2022-12-15T09:05:09.431Z,66.70
2022-12-15T09:06:09.388Z,67.60
2022-12-15T09:07:09.338Z,69.20
2022-12-15T09:08:09.300Z,68.60
2022-12-15T09:09:09.250Z,71.50
2022-12-15T09:10:09.190Z,67.30
2022-12-15T09:11:09.143Z,68.50
2022-12-15T09:12:09.095Z,70.60
2022-12-15T09:13:09.049Z,68.80
2022-12-15T09:14:09.005Z,70.20
2022-12-15T09:15:08.963Z,73.50
2022-12-15T09:16:15.225Z,73.20
2022-12-15T09:17:08.914Z,72.20
2022-12-15T09:18:08.807Z,72.70
2022-12-15T09:19:08.756Z,72.90
2022-12-15T09:20:08.709Z,75.70
2022-12-15T09:21:08.672Z,75.20
2022-12-15T09:22:08.615Z,71.70
2022-12-15T09:23:08.565Z,75.30
2022-12-15T09:24:08.519Z,74.00
2022-12-15T09:25:08.468Z,75.70
2022-12-15T09:26:08.424Z,75.60
2022-12-15T09:27:08.381Z,72.00
2022-12-15T09:28:08.324Z,77.00
2022-12-15T09:29:08.275Z,74.70
2022-12-15T09:30:08.238Z,74.30
2022-12-15T09:31:08.244Z,74.60
2022-12-15T09:32:13.881Z,71.40
2022-12-15T09:33:08.096Z,74.00
2022-12-15T09:34:08.037Z,75.50
2022-12-15T09:35:07.987Z,72.90
2022-12-15T09:36:07.942Z,76.10
2022-12-15T09:37:07.901Z,72.80
2022-12-15T09:38:07.844Z,73.50
2022-12-15T09:39:07.804Z,72.80
2022-12-15T09:40:07.749Z,71.70
2022-12-15T09:41:07.699Z,73.10
2022-12-15T09:42:07.651Z,76.10
2022-12-15T09:43:33.393Z,78.50
2022-12-15T09:44:07.553Z,76.00
2022-12-15T09:45:07.524Z,77.80
2022-12-15T09:46:07.485Z,74.70
2022-12-15T09:47:07.415Z,74.80
2022-12-15T09:48:07.364Z,74.30
2022-12-15T09:49:07.315Z,75.80
2022-12-15T09:50:07.272Z,77.40
2022-12-15T09:51:07.248Z,75.10
2022-12-15T09:52:11.000Z,72.50
2022-12-15T09:53:23.086Z,73.40
2022-12-15T09:54:07.072Z,73.00
2022-12-15T09:55:07.074Z,73.20
2022-12-15T09:56:07.029Z,71.10
2022-12-15T09:57:06.932Z,72.60
2022-12-15T09:58:10.913Z,71.70
2022-12-15T09:59:06.854Z,70.00
2022-12-15T10:00:06.787Z,68.20
2022-12-15T10:01:06.741Z,71.60
2022-12-15T10:02:06.849Z,72.50
2022-12-15T10:03:06.814Z,71.10
2022-12-15T10:04:06.761Z,68.50
2022-12-15T10:05:06.586Z,71.10
2022-12-15T10:06:16.195Z,70.70
2022-12-15T10:07:06.454Z,72.90
2022-12-15T10:08:06.418Z,69.10
2022-12-15T10:09:06.360Z,69.00
2022-12-15T10:10:06.315Z,70.50
2022-12-15T10:11:06.282Z,69.40
2022-12-15T10:12:06.220Z,68.90
2022-12-15T10:13:06.173Z,69.30
2022-12-15T10:14:06.119Z,65.20
2022-12-15T10:15:06.076Z,69.20
2022-12-15T10:16:06.075Z,68.50
2022-12-15T10:17:06.033Z,68.30
2022-12-15T10:18:05.926Z,68.10
2022-12-15T10:19:05.911Z,66.90
2022-12-15T10:20:05.833Z,68.50
2022-12-15T10:21:05.800Z,72.30
2022-12-15T10:22:05.751Z,73.20
2022-12-15T10:23:05.726Z,71.50
2022-12-15T10:24:05.661Z,69.70
2022-12-15T10:25:10.417Z,67.60
2022-12-15T10:26:05.551Z,70.30
2022-12-15T10:27:05.510Z,70.10
2022-12-15T10:28:05.475Z,69.30
2022-12-15T10:29:05.426Z,68.50
2022-12-15T10:30:05.449Z,70.80
2022-12-15T10:31:05.440Z,70.90
2022-12-15T10:32:05.264Z,69.60
2022-12-15T10:33:05.220Z,68.20
2022-12-15T10:34:05.175Z,71.70
2022-12-15T10:35:05.177Z,69.30
2022-12-15T10:36:05.074Z,70.20
2022-12-15T10:37:05.034Z,70.40
2022-12-15T10:38:04.995Z,70.30
2022-12-15T10:39:04.947Z,73.20
2022-12-15T10:40:04.891Z,75.50
2022-12-15T10:41:04.843Z,73.00
2022-12-15T10:42:04.790Z,72.20
2022-12-15T10:43:04.747Z,72.20
2022-12-15T10:44:04.694Z,73.90
2022-12-15T10:45:04.702Z,73.20
2022-12-15T10:46:04.624Z,71.40
2022-12-15T10:47:04.569Z,73.50
2022-12-15T10:48:04.519Z,72.20
2022-12-15T10:49:04.466Z,75.40
2022-12-15T10:50:04.406Z,69.90
2022-12-15T10:51:04.370Z,72.60
2022-12-15T10:52:04.315Z,70.70
2022-12-15T10:53:04.269Z,73.80
2022-12-15T10:54:04.231Z,74.30
2022-12-15T10:55:04.183Z,70.20
2022-12-15T10:56:04.121Z,69.40
2022-12-15T10:57:04.086Z,69.60
2022-12-15T10:58:04.027Z,73.10
2022-12-15T10:59:04.012Z,74.00
2022-12-15T11:00:03.956Z,72.30
2022-12-15T11:01:03.904Z,76.80
2022-12-15T11:02:03.949Z,69.80
2022-12-15T11:03:04.033Z,70.60
2022-12-15T11:04:03.848Z,71.70
2022-12-15T11:05:03.696Z,68.70
2022-12-15T11:06:03.678Z,69.30
2022-12-15T11:07:03.605Z,71.60
2022-12-15T11:08:06.689Z,75.60
2022-12-15T11:09:03.517Z,73.90
2022-12-15T11:10:03.478Z,75.00
2022-12-15T11:11:07.786Z,73.20
2022-12-15T11:12:03.383Z,71.80
2022-12-15T11:13:03.316Z,74.50
2022-12-15T11:14:03.272Z,72.60
2022-12-15T11:15:03.225Z,72.90
2022-12-15T11:16:03.186Z,72.00
2022-12-15T11:17:03.130Z,72.90
2022-12-15T11:18:03.080Z,73.50
2022-12-15T11:19:03.033Z,73.90
2022-12-15T11:20:03.653Z,73.30
2022-12-15T11:21:02.943Z,75.30
2022-12-15T11:22:02.911Z,74.70
2022-12-15T11:23:02.847Z,69.50
2022-12-15T11:24:02.799Z,73.10
2022-12-15T11:25:02.749Z,74.60
2022-12-15T11:26:06.773Z,73.70
2022-12-15T11:27:02.671Z,72.20
2022-12-15T11:28:02.612Z,74.70
2022-12-15T11:29:02.572Z,74.40
2022-12-15T11:30:02.515Z,73.10
2022-12-15T11:31:02.468Z,69.80
2022-12-15T11:32:06.978Z,75.00
2022-12-15T11:33:02.415Z,75.40
2022-12-15T11:34:02.324Z,75.50
2022-12-15T11:35:02.279Z,76.80
2022-12-15T11:36:02.234Z,73.00
2022-12-15T11:37:02.185Z,73.30
2022-12-15T11:38:02.147Z,74.50
2022-12-15T11:39:02.096Z,73.30
2022-12-15T11:40:02.058Z,73.70
2022-12-15T11:41:02.001Z,71.10
2022-12-15T11:42:01.946Z,74.50
2022-12-15T11:43:01.933Z,75.70
2022-12-15T11:44:06.280Z,75.20
2022-12-15T11:45:01.846Z,74.70
2022-12-15T11:46:01.769Z,77.90
2022-12-15T11:47:01.713Z,76.20
2022-12-15T11:48:01.692Z,75.10
2022-12-15T11:49:01.645Z,77.90
2022-12-15T11:50:01.571Z,72.00
2022-12-15T11:51:01.533Z,73.20
2022-12-15T11:52:01.474Z,76.20
2022-12-15T11:53:01.430Z,75.80
2022-12-15T11:54:01.393Z,78.40
2022-12-15T11:55:01.338Z,76.30
2022-12-15T11:56:01.289Z,73.60
2022-12-15T11:57:01.247Z,75.90
2022-12-15T11:58:01.190Z,79.60
2022-12-15T11:59:01.156Z,74.10
2022-12-15T12:00:01.107Z,76.60
2022-12-15T12:01:01.055Z,75.80
2022-12-15T12:02:03.576Z,77.90
2022-12-15T12:03:01.013Z,77.60
2022-12-15T12:04:00.936Z,75.80
2022-12-15T12:05:00.874Z,75.40
2022-12-15T12:06:00.831Z,77.40
2022-12-15T12:07:00.770Z,78.60
2022-12-15T12:08:00.723Z,79.00
2022-12-15T12:09:00.702Z,79.40
2022-12-15T12:10:00.642Z,77.10
2022-12-15T12:11:00.646Z,74.00
2022-12-15T12:12:00.535Z,71.20
2022-12-15T12:13:00.512Z,71.10
2022-12-15T12:14:00.437Z,70.30
2022-12-15T12:15:00.391Z,74.60
2022-12-15T12:16:00.345Z,71.60
2022-12-15T12:17:00.330Z,72.40
2022-12-15T12:18:00.259Z,73.50
2022-12-15T12:19:00.294Z,70.20
2022-12-15T12:20:00.165Z,72.60
2022-12-15T12:21:00.127Z,71.80
2022-12-15T12:22:00.094Z,74.50
2022-12-15T12:23:00.025Z,72.10
2022-12-15T12:23:59.969Z,67.30
2022-12-15T12:24:59.931Z,72.30
2022-12-15T12:26:03.170Z,67.40
2022-12-15T12:26:59.827Z,69.30
2022-12-15T12:27:59.799Z,64.70
2022-12-15T12:28:59.740Z,67.60
2022-12-15T12:29:59.683Z,65.90
2022-12-15T12:30:59.642Z,65.80
2022-12-15T12:32:04.515Z,66.20
2022-12-15T12:32:59.555Z,65.60
2022-12-15T12:33:59.496Z,65.10
2022-12-15T12:35:30.908Z,65.90
2022-12-15T12:35:59.404Z,66.10
2022-12-15T12:36:59.359Z,62.20
2022-12-15T12:38:03.068Z,60.60
2022-12-15T12:38:59.298Z,62.50
2022-12-15T12:39:59.215Z,59.90
2022-12-15T12:40:59.185Z,58.50
2022-12-15T12:41:59.123Z,56.70
2022-12-15T12:42:59.081Z,58.00
2022-12-15T12:43:59.043Z,58.50
2022-12-15T12:44:58.989Z,58.10
2022-12-15T12:45:58.962Z,56.70
2022-12-15T12:46:58.904Z,56.30
2022-12-15T12:47:58.844Z,56.00
2022-12-15T12:48:58.806Z,56.20
2022-12-15T12:49:58.753Z,56.50
2022-12-15T12:50:58.707Z,55.50
2022-12-15T12:51:58.674Z,55.90